sensor_id;sensor_type;location;lat;lon;timestamp;pressure;altitude;pressure_sealevel;temperature;humidity
2268;BME280;11052;43.338;25.502;2023-03-23T00:01:28;100711.56;;;10.71;100.00
2268;BME280;11052;43.338;25.502;2023-03-23T00:03:58;100713.44;;;10.65;100.00
2268;BME280;11052;43.338;25.502;2023-03-23T00:06:27;100716.75;;;10.71;100.00
2268;BME280;11052;43.338;25.502;2023-03-23T00:09:00;100712.38;;;10.73;100.00
2268;BME280;11052;43.338;25.502;2023-03-23T00:11:31;100713.41;;;10.66;100.00
2268;BME280;11052;43.338;25.502;2023-03-23T00:14:00;100717.91;;;10.58;100.00
2268;BME280;11052;43.338;25.502;2023-03-23T00:16:29;100712.13;;;10.47;100.00
2268;BME280;11052;43.338;25.502;2023-03-23T00:18:59;100712.03;;;10.51;100.00
2268;BME280;11052;43.338;25.502;2023-03-23T00:21:28;100721.66;;;10.46;100.00
2268;BME280;11052;43.338;25.502;2023-03-23T00:24:04;100708.91;;;10.39;100.00
2268;BME280;11052;43.338;25.502;2023-03-23T00:26:36;100709.88;;;10.33;100.00
2268;BME280;11052;43.338;25.502;2023-03-23T00:29:07;100714.97;;;10.38;100.00
2268;BME280;11052;43.338;25.502;2023-03-23T00:31:35;100703.00;;;10.32;100.00
2268;BME280;11052;43.338;25.502;2023-03-23T00:34:04;100703.72;;;10.39;100.00
2268;BME280;11052;43.338;25.502;2023-03-23T00:36:32;100701.34;;;10.28;100.00
2268;BME280;11052;43.338;25.502;2023-03-23T00:39:00;100695.34;;;10.26;100.00
2268;BME280;11052;43.338;25.502;2023-03-23T00:41:30;100696.50;;;10.11;100.00
2268;BME280;11052;43.338;25.502;2023-03-23T00:44:00;100698.91;;;10.22;100.00
2268;BME280;11052;43.338;25.502;2023-03-23T00:46:29;100692.16;;;10.13;100.00
2268;BME280;11052;43.338;25.502;2023-03-23T00:48:56;100689.69;;;10.07;100.00
2268;BME280;11052;43.338;25.502;2023-03-23T00:51:23;100698.28;;;10.09;100.00
2268;BME280;11052;43.338;25.502;2023-03-23T00:53:51;100686.16;;;10.11;100.00
2268;BME280;11052;43.338;25.502;2023-03-23T00:56:18;100696.78;;;9.99;100.00
2268;BME280;11052;43.338;25.502;2023-03-23T00:58:45;100695.88;;;10.00;100.00
2268;BME280;11052;43.338;25.502;2023-03-23T01:01:13;100693.94;;;10.11;100.00
2268;BME280;11052;43.338;25.502;2023-03-23T01:03:40;100693.19;;;10.05;100.00
2268;BME280;11052;43.338;25.502;2023-03-23T01:06:09;100699.00;;;10.16;100.00
2268;BME280;11052;43.338;25.502;2023-03-23T01:08:39;100692.88;;;10.22;100.00
2268;BME280;11052;43.338;25.502;2023-03-23T01:11:12;100697.97;;;10.25;100.00
2268;BME280;11052;43.338;25.502;2023-03-23T01:13:40;100690.16;;;10.28;100.00
2268;BME280;11052;43.338;25.502;2023-03-23T01:16:07;100695.84;;;10.42;100.00
2268;BME280;11052;43.338;25.502;2023-03-23T01:18:36;100690.91;;;10.33;100.00
2268;BME280;11052;43.338;25.502;2023-03-23T01:21:04;100696.13;;;10.30;100.00
2268;BME280;11052;43.338;25.502;2023-03-23T01:23:32;100688.25;;;10.34;100.00
2268;BME280;11052;43.338;25.502;2023-03-23T01:26:03;100694.47;;;10.27;100.00
2268;BME280;11052;43.338;25.502;2023-03-23T01:28:30;100690.38;;;10.15;100.00
2268;BME280;11052;43.338;25.502;2023-03-23T01:31:00;100690.31;;;10.20;100.00
2268;BME280;11052;43.338;25.502;2023-03-23T01:33:27;100688.69;;;10.14;100.00
2268;BME280;11052;43.338;25.502;2023-03-23T01:35:56;100689.47;;;10.18;100.00
2268;BME280;11052;43.338;25.502;2023-03-23T01:38:23;100685.81;;;10.28;100.00
2268;BME280;11052;43.338;25.502;2023-03-23T01:40:50;100691.06;;;10.25;100.00
2268;BME280;11052;43.338;25.502;2023-03-23T01:43:17;100693.72;;;10.22;100.00
2268;BME280;11052;43.338;25.502;2023-03-23T01:45:45;100688.59;;;10.17;100.00
2268;BME280;11052;43.338;25.502;2023-03-23T01:48:16;100687.00;;;10.12;100.00
2268;BME280;11052;43.338;25.502;2023-03-23T01:50:49;100686.84;;;10.21;100.00
2268;BME280;11052;43.338;25.502;2023-03-23T01:53:19;100695.16;;;10.35;100.00
2268;BME280;11052;43.338;25.502;2023-03-23T01:55:49;100691.16;;;10.21;100.00
2268;BME280;11052;43.338;25.502;2023-03-23T01:58:20;100691.50;;;10.04;100.00
2268;BME280;11052;43.338;25.502;2023-03-23T02:00:51;100698.59;;;9.94;100.00
2268;BME280;11052;43.338;25.502;2023-03-23T02:03:20;100696.91;;;9.93;100.00
2268;BME280;11052;43.338;25.502;2023-03-23T02:05:49;100693.44;;;9.94;100.00
2268;BME280;11052;43.338;25.502;2023-03-23T02:08:19;100702.88;;;9.97;100.00
2268;BME280;11052;43.338;25.502;2023-03-23T02:10:46;100699.28;;;10.04;100.00
2268;BME280;11052;43.338;25.502;2023-03-23T02:13:14;100702.81;;;10.00;100.00
2268;BME280;11052;43.338;25.502;2023-03-23T02:15:52;100709.53;;;10.08;100.00
2268;BME280;11052;43.338;25.502;2023-03-23T02:18:34;100712.97;;;10.09;100.00
2268;BME280;11052;43.338;25.502;2023-03-23T02:24:47;100717.34;;;10.07;100.00
2268;BME280;11052;43.338;25.502;2023-03-23T02:27:36;100715.66;;;10.04;100.00
2268;BME280;11052;43.338;25.502;2023-03-23T02:30:16;100723.16;;;10.16;100.00
2268;BME280;11052;43.338;25.502;2023-03-23T02:33:24;100719.00;;;10.09;100.00
2268;BME280;11052;43.338;25.502;2023-03-23T02:35:58;100723.13;;;10.20;100.00
2268;BME280;11052;43.338;25.502;2023-03-23T02:38:31;100717.31;;;10.08;100.00
2268;BME280;11052;43.338;25.502;2023-03-23T02:41:01;100715.38;;;10.18;100.00
2268;BME280;11052;43.338;25.502;2023-03-23T02:43:33;100719.63;;;10.22;100.00
2268;BME280;11052;43.338;25.502;2023-03-23T02:46:05;100714.41;;;10.24;100.00
2268;BME280;11052;43.338;25.502;2023-03-23T02:48:35;100713.47;;;10.28;100.00
2268;BME280;11052;43.338;25.502;2023-03-23T02:51:04;100721.50;;;10.14;100.00
2268;BME280;11052;43.338;25.502;2023-03-23T02:53:35;100723.06;;;10.23;100.00
2268;BME280;11052;43.338;25.502;2023-03-23T02:56:06;100726.59;;;10.20;100.00
2268;BME280;11052;43.338;25.502;2023-03-23T02:58:34;100727.84;;;9.99;100.00
2268;BME280;11052;43.338;25.502;2023-03-23T03:04:03;100734.63;;;10.06;100.00
2268;BME280;11052;43.338;25.502;2023-03-23T03:06:37;100737.06;;;10.12;100.00
2268;BME280;11052;43.338;25.502;2023-03-23T03:09:14;100740.75;;;10.02;100.00
2268;BME280;11052;43.338;25.502;2023-03-23T03:11:47;100747.72;;;9.99;100.00
2268;BME280;11052;43.338;25.502;2023-03-23T03:14:20;100750.34;;;9.97;100.00
2268;BME280;11052;43.338;25.502;2023-03-23T03:16:53;100750.47;;;9.91;100.00
2268;BME280;11052;43.338;25.502;2023-03-23T03:19:25;100753.75;;;9.99;100.00
2268;BME280;11052;43.338;25.502;2023-03-23T03:21:56;100757.69;;;9.75;100.00
2268;BME280;11052;43.338;25.502;2023-03-23T03:24:28;100768.91;;;9.74;100.00
2268;BME280;11052;43.338;25.502;2023-03-23T03:26:58;100766.25;;;9.79;100.00
2268;BME280;11052;43.338;25.502;2023-03-23T03:29:29;100777.53;;;9.75;100.00
2268;BME280;11052;43.338;25.502;2023-03-23T03:31:58;100772.38;;;9.73;100.00
2268;BME280;11052;43.338;25.502;2023-03-23T03:34:31;100771.69;;;9.64;100.00
2268;BME280;11052;43.338;25.502;2023-03-23T03:36:59;100770.81;;;9.65;100.00
2268;BME280;11052;43.338;25.502;2023-03-23T03:39:27;100778.50;;;9.69;100.00
2268;BME280;11052;43.338;25.502;2023-03-23T03:41:54;100771.66;;;9.67;100.00
2268;BME280;11052;43.338;25.502;2023-03-23T03:44:22;100780.31;;;9.64;100.00
2268;BME280;11052;43.338;25.502;2023-03-23T03:46:49;100787.13;;;9.70;100.00
2268;BME280;11052;43.338;25.502;2023-03-23T03:49:16;100793.41;;;9.57;100.00
2268;BME280;11052;43.338;25.502;2023-03-23T03:51:45;100795.09;;;9.58;100.00
2268;BME280;11052;43.338;25.502;2023-03-23T03:54:12;100792.41;;;9.64;100.00
2268;BME280;11052;43.338;25.502;2023-03-23T03:56:39;100791.53;;;9.65;100.00
2268;BME280;11052;43.338;25.502;2023-03-23T03:59:07;100793.94;;;9.74;100.00
2268;BME280;11052;43.338;25.502;2023-03-23T04:01:36;100798.59;;;9.55;100.00
2268;BME280;11052;43.338;25.502;2023-03-23T04:04:04;100799.28;;;9.65;100.00
2268;BME280;11052;43.338;25.502;2023-03-23T04:06:32;100801.91;;;9.63;100.00
2268;BME280;11052;43.338;25.502;2023-03-23T04:09:05;100802.94;;;9.54;100.00
2268;BME280;11052;43.338;25.502;2023-03-23T04:11:33;100799.56;;;9.51;100.00
2268;BME280;11052;43.338;25.502;2023-03-23T04:14:00;100806.50;;;9.49;100.00
2268;BME280;11052;43.338;25.502;2023-03-23T04:16:28;100805.78;;;9.41;100.00
2268;BME280;11052;43.338;25.502;2023-03-23T04:18:56;100810.97;;;9.41;100.00
2268;BME280;11052;43.338;25.502;2023-03-23T04:21:23;100815.28;;;9.40;100.00
2268;BME280;11052;43.338;25.502;2023-03-23T04:23:54;100809.19;;;9.44;100.00
2268;BME280;11052;43.338;25.502;2023-03-23T04:26:27;100814.28;;;9.47;100.00
2268;BME280;11052;43.338;25.502;2023-03-23T04:28:55;100809.03;;;9.52;100.00
2268;BME280;11052;43.338;25.502;2023-03-23T04:31:22;100816.09;;;9.44;100.00
2268;BME280;11052;43.338;25.502;2023-03-23T04:33:51;100820.56;;;9.34;100.00
2268;BME280;11052;43.338;25.502;2023-03-23T04:36:19;100816.25;;;9.35;100.00
2268;BME280;11052;43.338;25.502;2023-03-23T04:38:48;100817.97;;;9.34;100.00
2268;BME280;11052;43.338;25.502;2023-03-23T04:41:16;100818.94;;;9.27;100.00
2268;BME280;11052;43.338;25.502;2023-03-23T04:43:45;100819.69;;;9.35;100.00
2268;BME280;11052;43.338;25.502;2023-03-23T04:46:18;100818.13;;;9.25;100.00
2268;BME280;11052;43.338;25.502;2023-03-23T04:48:47;100815.47;;;9.28;100.00
2268;BME280;11052;43.338;25.502;2023-03-23T04:51:14;100814.56;;;9.32;100.00
2268;BME280;11052;43.338;25.502;2023-03-23T04:53:41;100817.16;;;9.32;100.00
2268;BME280;11052;43.338;25.502;2023-03-23T04:56:09;100811.19;;;9.27;100.00
2268;BME280;11052;43.338;25.502;2023-03-23T04:58:36;100811.16;;;9.29;100.00
2268;BME280;11052;43.338;25.502;2023-03-23T05:01:06;100821.44;;;9.33;100.00
2268;BME280;11052;43.338;25.502;2023-03-23T05:03:33;100825.81;;;9.30;100.00
2268;BME280;11052;43.338;25.502;2023-03-23T05:19:38;100831.91;;;9.75;100.00
2268;BME280;11052;43.338;25.502;2023-03-23T05:22:06;100835.47;;;9.68;100.00
2268;BME280;11052;43.338;25.502;2023-03-23T05:24:35;100834.34;;;9.82;100.00
2268;BME280;11052;43.338;25.502;2023-03-23T05:27:02;100831.56;;;9.93;100.00
2268;BME280;11052;43.338;25.502;2023-03-23T05:29:29;100833.13;;;10.02;100.00
2268;BME280;11052;43.338;25.502;2023-03-23T05:31:56;100833.81;;;10.11;100.00
2268;BME280;11052;43.338;25.502;2023-03-23T05:34:25;100836.28;;;10.17;100.00
2268;BME280;11052;43.338;25.502;2023-03-23T05:36:55;100840.53;;;10.22;100.00
2268;BME280;11052;43.338;25.502;2023-03-23T05:39:23;100837.88;;;10.26;100.00
2268;BME280;11052;43.338;25.502;2023-03-23T05:41:50;100841.22;;;10.31;100.00
2268;BME280;11052;43.338;25.502;2023-03-23T05:44:18;100842.03;;;10.33;100.00
2268;BME280;11052;43.338;25.502;2023-03-23T05:46:45;100838.53;;;10.36;100.00
2268;BME280;11052;43.338;25.502;2023-03-23T05:49:13;100840.22;;;10.38;100.00
2268;BME280;11052;43.338;25.502;2023-03-23T05:51:41;100840.06;;;10.44;100.00
2268;BME280;11052;43.338;25.502;2023-03-23T05:54:11;100840.09;;;10.43;100.00
2268;BME280;11052;43.338;25.502;2023-03-23T05:56:38;100846.31;;;10.36;100.00
2268;BME280;11052;43.338;25.502;2023-03-23T05:59:05;100840.31;;;10.34;100.00
2268;BME280;11052;43.338;25.502;2023-03-23T06:01:32;100854.75;;;10.44;100.00
2268;BME280;11052;43.338;25.502;2023-03-23T06:03:59;100851.56;;;10.33;100.00
2268;BME280;11052;43.338;25.502;2023-03-23T06:06:27;100851.28;;;10.45;100.00
2268;BME280;11052;43.338;25.502;2023-03-23T06:08:55;100856.38;;;10.48;100.00
2268;BME280;11052;43.338;25.502;2023-03-23T06:11:24;100865.13;;;10.44;100.00
2268;BME280;11052;43.338;25.502;2023-03-23T06:13:51;100868.44;;;10.50;100.00
2268;BME280;11052;43.338;25.502;2023-03-23T06:16:19;100861.41;;;10.56;100.00
2268;BME280;11052;43.338;25.502;2023-03-23T06:18:46;100863.84;;;10.63;100.00
2268;BME280;11052;43.338;25.502;2023-03-23T06:21:13;100871.47;;;10.71;100.00
2268;BME280;11052;43.338;25.502;2023-03-23T06:23:43;100870.72;;;10.66;100.00
2268;BME280;11052;43.338;25.502;2023-03-23T06:26:12;100872.97;;;10.81;100.00
2268;BME280;11052;43.338;25.502;2023-03-23T06:28:43;100880.41;;;10.96;100.00
2268;BME280;11052;43.338;25.502;2023-03-23T06:31:10;100882.97;;;10.98;100.00
2268;BME280;11052;43.338;25.502;2023-03-23T06:33:40;100875.94;;;11.03;100.00
2268;BME280;11052;43.338;25.502;2023-03-23T06:36:07;100881.81;;;11.11;100.00
2268;BME280;11052;43.338;25.502;2023-03-23T06:38:36;100889.31;;;11.23;100.00
2268;BME280;11052;43.338;25.502;2023-03-23T06:41:04;100882.06;;;11.36;100.00
2268;BME280;11052;43.338;25.502;2023-03-23T06:43:31;100884.88;;;11.27;100.00
2268;BME280;11052;43.338;25.502;2023-03-23T06:46:00;100887.38;;;11.31;100.00
2268;BME280;11052;43.338;25.502;2023-03-23T06:48:27;100887.34;;;11.33;100.00
2268;BME280;11052;43.338;25.502;2023-03-23T06:50:55;100891.09;;;11.57;100.00
2268;BME280;11052;43.338;25.502;2023-03-23T06:53:22;100892.03;;;11.54;100.00
2268;BME280;11052;43.338;25.502;2023-03-23T06:55:49;100892.06;;;11.53;100.00
2268;BME280;11052;43.338;25.502;2023-03-23T06:58:16;100891.09;;;11.57;100.00
2268;BME280;11052;43.338;25.502;2023-03-23T07:00:44;100892.59;;;11.65;100.00
2268;BME280;11052;43.338;25.502;2023-03-23T07:03:12;100894.94;;;11.77;100.00
2268;BME280;11052;43.338;25.502;2023-03-23T07:05:40;100895.75;;;11.79;100.00
2268;BME280;11052;43.338;25.502;2023-03-23T07:08:07;100895.72;;;11.81;100.00
2268;BME280;11052;43.338;25.502;2023-03-23T07:10:34;100895.66;;;11.82;100.00
2268;BME280;11052;43.338;25.502;2023-03-23T07:13:01;100895.31;;;11.96;100.00
2268;BME280;11052;43.338;25.502;2023-03-23T07:15:28;100899.50;;;12.02;100.00
2268;BME280;11052;43.338;25.502;2023-03-23T07:17:56;100908.31;;;11.96;100.00
2268;BME280;11052;43.338;25.502;2023-03-23T07:20:25;100907.97;;;12.08;100.00
2268;BME280;11052;43.338;25.502;2023-03-23T07:22:54;100905.38;;;12.08;100.00
2268;BME280;11052;43.338;25.502;2023-03-23T07:25:22;100906.56;;;12.28;100.00
2268;BME280;11052;43.338;25.502;2023-03-23T07:27:49;100914.28;;;12.31;100.00
2268;BME280;11052;43.338;25.502;2023-03-23T07:30:16;100914.31;;;12.29;100.00
2268;BME280;11052;43.338;25.502;2023-03-23T07:32:44;100914.19;;;12.34;100.00
2268;BME280;11052;43.338;25.502;2023-03-23T07:35:11;100917.41;;;12.43;100.00
2268;BME280;11052;43.338;25.502;2023-03-23T07:37:40;100919.69;;;12.54;100.00
2268;BME280;11052;43.338;25.502;2023-03-23T07:40:08;100927.81;;;12.43;100.00
2268;BME280;11052;43.338;25.502;2023-03-23T07:42:36;100920.44;;;12.59;100.00
2268;BME280;11052;43.338;25.502;2023-03-23T07:45:04;100920.16;;;12.68;100.00
2268;BME280;11052;43.338;25.502;2023-03-23T07:47:32;100919.31;;;12.68;100.00
2268;BME280;11052;43.338;25.502;2023-03-23T07:49:59;100927.75;;;12.76;100.00
2268;BME280;11052;43.338;25.502;2023-03-23T07:52:26;100924.06;;;13.11;100.00
2268;BME280;11052;43.338;25.502;2023-03-23T07:54:55;100928.00;;;13.26;100.00
2268;BME280;11052;43.338;25.502;2023-03-23T07:57:22;100931.88;;;13.40;100.00
2268;BME280;11052;43.338;25.502;2023-03-23T07:59:49;100932.13;;;13.33;100.00
2268;BME280;11052;43.338;25.502;2023-03-23T08:02:17;100925.81;;;13.40;100.00
2268;BME280;11052;43.338;25.502;2023-03-23T08:04:44;100934.53;;;13.39;100.00
2268;BME280;11052;43.338;25.502;2023-03-23T08:07:13;100927.78;;;13.60;100.00
2268;BME280;11052;43.338;25.502;2023-03-23T08:09:42;100929.50;;;13.61;100.00
2268;BME280;11052;43.338;25.502;2023-03-23T08:12:11;100934.91;;;13.55;100.00
2268;BME280;11052;43.338;25.502;2023-03-23T08:14:38;100936.91;;;13.73;100.00
2268;BME280;11052;43.338;25.502;2023-03-23T08:17:07;100937.81;;;13.72;100.00
2268;BME280;11052;43.338;25.502;2023-03-23T08:19:34;100940.31;;;13.75;100.00
2268;BME280;11052;43.338;25.502;2023-03-23T08:22:02;100935.16;;;13.73;100.00
2268;BME280;11052;43.338;25.502;2023-03-23T08:24:30;100939.41;;;13.76;100.00
2268;BME280;11052;43.338;25.502;2023-03-23T08:26:58;100939.16;;;13.84;100.00
2268;BME280;11052;43.338;25.502;2023-03-23T08:29:27;100939.88;;;13.87;100.00
2268;BME280;11052;43.338;25.502;2023-03-23T08:31:54;100938.72;;;13.96;100.00
2268;BME280;11052;43.338;25.502;2023-03-23T08:34:21;100936.22;;;13.93;100.00
2268;BME280;11052;43.338;25.502;2023-03-23T08:36:48;100928.94;;;14.02;100.00
2268;BME280;11052;43.338;25.502;2023-03-23T08:39:17;100933.69;;;14.41;100.00
2268;BME280;11052;43.338;25.502;2023-03-23T08:41:44;100930.69;;;14.75;100.00
2268;BME280;11052;43.338;25.502;2023-03-23T08:44:12;100925.63;;;15.17;100.00
2268;BME280;11052;43.338;25.502;2023-03-23T08:46:40;100925.41;;;15.00;100.00
2268;BME280;11052;43.338;25.502;2023-03-23T08:49:08;100924.63;;;15.20;100.00
2268;BME280;11052;43.338;25.502;2023-03-23T08:51:35;100926.22;;;15.24;100.00
2268;BME280;11052;43.338;25.502;2023-03-23T08:54:03;100921.66;;;15.29;100.00
2268;BME280;11052;43.338;25.502;2023-03-23T08:56:30;100927.19;;;15.43;100.00
2268;BME280;11052;43.338;25.502;2023-03-23T08:58:57;100929.09;;;15.39;100.00
2268;BME280;11052;43.338;25.502;2023-03-23T09:01:25;100933.63;;;15.34;100.00
2268;BME280;11052;43.338;25.502;2023-03-23T09:03:53;100921.84;;;15.24;100.00
2268;BME280;11052;43.338;25.502;2023-03-23T09:06:21;100926.63;;;15.13;100.00
2268;BME280;11052;43.338;25.502;2023-03-23T09:08:48;100921.66;;;15.07;100.00
2268;BME280;11052;43.338;25.502;2023-03-23T09:11:15;100919.13;;;15.27;100.00
2268;BME280;11052;43.338;25.502;2023-03-23T09:13:42;100923.00;;;15.17;100.00
2268;BME280;11052;43.338;25.502;2023-03-23T09:16:10;100921.84;;;15.24;100.00
2268;BME280;11052;43.338;25.502;2023-03-23T09:18:37;100922.75;;;15.23;100.00
2268;BME280;11052;43.338;25.502;2023-03-23T09:21:05;100922.63;;;15.26;100.00
2268;BME280;11052;43.338;25.502;2023-03-23T09:23:33;100926.16;;;15.25;100.00
2268;BME280;11052;43.338;25.502;2023-03-23T09:26:02;100925.00;;;15.32;100.00
2268;BME280;11052;43.338;25.502;2023-03-23T09:28:30;100914.19;;;15.41;100.00
2268;BME280;11052;43.338;25.502;2023-03-23T09:30:58;100912.88;;;15.31;100.00
2268;BME280;11052;43.338;25.502;2023-03-23T09:33:25;100915.03;;;14.98;100.00
2268;BME280;11052;43.338;25.502;2023-03-23T09:35:54;100910.91;;;15.15;100.00
2268;BME280;11052;43.338;25.502;2023-03-23T09:38:23;100914.19;;;15.20;100.00
2268;BME280;11052;43.338;25.502;2023-03-23T09:41:01;100910.91;;;15.36;100.00
2268;BME280;11052;43.338;25.502;2023-03-23T09:43:53;100906.34;;;15.41;100.00
2268;BME280;11052;43.338;25.502;2023-03-23T09:46:35;100911.41;;;15.46;100.00
2268;BME280;11052;43.338;25.502;2023-03-23T09:49:10;100907.63;;;15.53;100.00
2268;BME280;11052;43.338;25.502;2023-03-23T09:51:42;100903.94;;;15.37;100.00
2268;BME280;11052;43.338;25.502;2023-03-23T09:54:17;100907.75;;;15.06;100.00
2268;BME280;11052;43.338;25.502;2023-03-23T09:56:46;100909.34;;;15.32;100.00
2268;BME280;11052;43.338;25.502;2023-03-23T09:59:19;100906.19;;;15.46;100.00
2268;BME280;11052;43.338;25.502;2023-03-23T10:01:49;100905.50;;;15.63;100.00
2268;BME280;11052;43.338;25.502;2023-03-23T10:04:34;100897.13;;;15.75;100.00
2268;BME280;11052;43.338;25.502;2023-03-23T10:07:09;100902.91;;;15.83;100.00
2268;BME280;11052;43.338;25.502;2023-03-23T10:09:40;100896.19;;;15.98;100.00
2268;BME280;11052;43.338;25.502;2023-03-23T10:12:16;100904.97;;;15.75;100.00
2268;BME280;11052;43.338;25.502;2023-03-23T10:15:09;100899.72;;;15.55;100.00
2268;BME280;11052;43.338;25.502;2023-03-23T10:17:43;100892.72;;;15.57;100.00
2268;BME280;11052;43.338;25.502;2023-03-23T10:23:13;100903.84;;;15.60;100.00
2268;BME280;11052;43.338;25.502;2023-03-23T10:25:46;100903.84;;;15.60;100.00
2268;BME280;11052;43.338;25.502;2023-03-23T10:28:18;100898.88;;;15.54;100.00
2268;BME280;11052;43.338;25.502;2023-03-23T10:30:49;100891.97;;;15.73;100.00
2268;BME280;11052;43.338;25.502;2023-03-23T10:33:22;100882.50;;;15.91;100.00
2268;BME280;11052;43.338;25.502;2023-03-23T10:35:55;100895.00;;;16.05;100.00
2268;BME280;11052;43.338;25.502;2023-03-23T10:38:32;100890.69;;;16.43;100.00
2268;BME280;11052;43.338;25.502;2023-03-23T10:41:08;100889.31;;;16.74;100.00
2268;BME280;11052;43.338;25.502;2023-03-23T10:43:37;100883.44;;;16.87;100.00
2268;BME280;11052;43.338;25.502;2023-03-23T10:46:14;100882.81;;;16.82;100.00
2268;BME280;11052;43.338;25.502;2023-03-23T10:48:47;100873.97;;;16.85;100.00
2268;BME280;11052;43.338;25.502;2023-03-23T10:51:18;100870.22;;;16.71;96.68
2268;BME280;11052;43.338;25.502;2023-03-23T10:53:50;100869.84;;;16.79;100.00
2268;BME280;11052;43.338;25.502;2023-03-23T10:56:24;100874.31;;;16.96;100.00
2268;BME280;11052;43.338;25.502;2023-03-23T10:58:52;100860.56;;;16.91;97.69
2268;BME280;11052;43.338;25.502;2023-03-23T11:01:29;100860.94;;;16.83;100.00
2268;BME280;11052;43.338;25.502;2023-03-23T11:03:57;100856.47;;;16.85;100.00
2268;BME280;11052;43.338;25.502;2023-03-23T11:06:27;100859.03;;;16.87;100.00
2268;BME280;11052;43.338;25.502;2023-03-23T11:08:57;100858.38;;;16.82;95.52
2268;BME280;11052;43.338;25.502;2023-03-23T11:11:28;100847.44;;;16.74;92.11
2268;BME280;11052;43.338;25.502;2023-03-23T11:14:00;100850.13;;;16.72;94.30
2268;BME280;11052;43.338;25.502;2023-03-23T11:16:29;100852.44;;;16.97;86.35
2268;BME280;11052;43.338;25.502;2023-03-23T11:18:58;100843.25;;;16.69;86.27
2268;BME280;11052;43.338;25.502;2023-03-23T11:21:27;100833.84;;;16.65;90.07
2268;BME280;11052;43.338;25.502;2023-03-23T11:23:57;100838.22;;;16.84;89.64
2268;BME280;11052;43.338;25.502;2023-03-23T11:26:27;100840.41;;;17.29;95.04
2268;BME280;11052;43.338;25.502;2023-03-23T11:28:57;100825.75;;;17.59;91.31
2268;BME280;11052;43.338;25.502;2023-03-23T11:31:29;100829.69;;;17.85;94.00
2268;BME280;11052;43.338;25.502;2023-03-23T11:33:59;100831.13;;;18.08;93.23
2268;BME280;11052;43.338;25.502;2023-03-23T11:36:35;100822.69;;;18.34;89.61
2268;BME280;11052;43.338;25.502;2023-03-23T11:39:16;100822.69;;;18.34;93.33
2268;BME280;11052;43.338;25.502;2023-03-23T11:41:47;100817.44;;;18.19;87.96
2268;BME280;11052;43.338;25.502;2023-03-23T11:44:14;100817.56;;;17.83;89.32
2268;BME280;11052;43.338;25.502;2023-03-23T11:46:48;100817.63;;;17.64;86.50
2268;BME280;11052;43.338;25.502;2023-03-23T11:49:29;100817.88;;;17.59;89.23
2268;BME280;11052;43.338;25.502;2023-03-23T11:52:03;100807.16;;;17.81;86.51
2268;BME280;11052;43.338;25.502;2023-03-23T11:54:34;100811.72;;;17.78;89.39
2268;BME280;11052;43.338;25.502;2023-03-23T11:57:09;100813.56;;;17.76;88.77
2268;BME280;11052;43.338;25.502;2023-03-23T11:59:39;100813.72;;;17.73;87.64
2268;BME280;11052;43.338;25.502;2023-03-23T12:02:27;100805.00;;;17.89;87.85
2268;BME280;11052;43.338;25.502;2023-03-23T12:05:14;100803.91;;;17.42;84.01
2268;BME280;11052;43.338;25.502;2023-03-23T12:07:53;100807.78;;;17.17;85.47
2268;BME280;11052;43.338;25.502;2023-03-23T12:10:31;100813.84;;;17.00;86.49
2268;BME280;11052;43.338;25.502;2023-03-23T12:13:15;100815.44;;;16.86;85.42
2268;BME280;11052;43.338;25.502;2023-03-23T12:15:52;100808.50;;;16.85;87.07
2268;BME280;11052;43.338;25.502;2023-03-23T12:18:30;100811.53;;;16.94;85.04
2268;BME280;11052;43.338;25.502;2023-03-23T12:21:05;100805.44;;;16.94;83.93
2268;BME280;11052;43.338;25.502;2023-03-23T12:23:41;100807.91;;;16.97;83.87
2268;BME280;11052;43.338;25.502;2023-03-23T12:26:17;100802.69;;;16.78;79.41
2268;BME280;11052;43.338;25.502;2023-03-23T12:31:59;100803.63;;;16.21;85.89
2268;BME280;11052;43.338;25.502;2023-03-23T12:34:37;100794.25;;;15.96;81.92
2268;BME280;11052;43.338;25.502;2023-03-23T12:37:23;100799.50;;;15.76;82.86
2268;BME280;11052;43.338;25.502;2023-03-23T12:40:10;100806.19;;;15.63;84.58
2268;BME280;11052;43.338;25.502;2023-03-23T12:42:53;100799.97;;;15.86;88.79
2268;BME280;11052;43.338;25.502;2023-03-23T12:45:37;100799.09;;;15.85;87.80
2268;BME280;11052;43.338;25.502;2023-03-23T12:48:12;100797.13;;;15.90;93.84
2268;BME280;11052;43.338;25.502;2023-03-23T12:50:44;100800.06;;;16.03;94.42
2268;BME280;11052;43.338;25.502;2023-03-23T12:53:17;100801.44;;;15.91;99.48
2268;BME280;11052;43.338;25.502;2023-03-23T12:55:49;100807.91;;;16.03;100.00
2268;BME280;11052;43.338;25.502;2023-03-23T12:58:20;100809.16;;;15.94;98.61
2268;BME280;11052;43.338;25.502;2023-03-23T13:00:54;100811.91;;;15.91;97.10
2268;BME280;11052;43.338;25.502;2023-03-23T13:03:27;100811.19;;;15.88;100.00
2268;BME280;11052;43.338;25.502;2023-03-23T13:06:04;100809.56;;;15.85;100.00
2268;BME280;11052;43.338;25.502;2023-03-23T13:08:35;100812.63;;;15.95;98.96
2268;BME280;11052;43.338;25.502;2023-03-23T13:11:10;100804.78;;;15.95;100.00
2268;BME280;11052;43.338;25.502;2023-03-23T13:13:47;100795.75;;;16.02;100.00
2268;BME280;11052;43.338;25.502;2023-03-23T13:16:22;100789.44;;;15.87;95.55
2268;BME280;11052;43.338;25.502;2023-03-23T13:19:02;100790.09;;;16.11;97.66
2268;BME280;11052;43.338;25.502;2023-03-23T13:21:32;100789.63;;;16.22;98.01
2268;BME280;11052;43.338;25.502;2023-03-23T13:24:03;100791.19;;;16.26;96.30
2268;BME280;11052;43.338;25.502;2023-03-23T13:26:32;100795.94;;;16.36;99.94